Time;durP1;ratioP1;P1;durP2;ratioP2;P2;SDS_P1;SDS_P2;PMS_P1;PMS_P2;Temp;Humidity;BMP_temperature;BMP_pressure;BME280_temperature;BME280_humidity;BME280_pressure;Samples;Min_cycle;Max_cycle;Signal;HPM_P1;HPM_P2
2022/04/07 00:00:37;;;;;;;4.47;3.25;;;;;;;10.32;65.44;98552.75;5015487;28;20033;-74
2022/04/07 00:03:03;;;;;;;5.75;4.15;;;;;;;10.29;64.61;98556.66;5015833;28;20026;-75
2022/04/07 00:05:29;;;;;;;6.50;4.50;;;;;;;10.24;65.10;98551.75;5015653;28;20026;-75
2022/04/07 00:07:56;;;;;;;5.25;4.05;;;;;;;10.21;64.95;98552.03;5015221;28;20084;-75
2022/04/07 00:10:21;;;;;;;4.93;4.40;;;;;;;10.16;65.39;98542.19;5013630;28;20471;-74
2022/04/07 00:12:49;;;;;;;7.03;4.03;;;;;;;10.08;65.55;98546.81;5014965;28;20026;-73
2022/04/07 00:15:16;;;;;;;6.32;4.10;;;;;;;10.05;65.56;98541.41;5013828;28;20022;-75
2022/04/07 00:17:44;;;;;;;4.90;4.18;;;;;;;9.99;65.45;98547.09;5015289;28;20039;-74
2022/04/07 00:20:13;;;;;;;6.60;4.25;;;;;;;9.95;66.35;98549.44;4997264;28;20387;-75
2022/04/07 00:22:39;;;;;;;7.20;5.43;;;;;;;9.90;66.20;98541.69;5013940;28;20033;-74
2022/04/07 00:25:06;;;;;;;7.88;4.80;;;;;;;9.88;66.31;98541.41;5013728;28;20053;-74
2022/04/07 00:27:33;;;;;;;6.28;4.60;;;;;;;9.90;66.59;98539.59;4997424;28;20100;-73
2022/04/07 00:29:59;;;;;;;7.53;4.38;;;;;;;9.96;66.33;98536.75;5013377;28;20029;-75
2022/04/07 00:32:24;;;;;;;6.32;4.30;;;;;;;9.96;66.47;98542.47;5013745;28;20076;-73
2022/04/07 00:34:54;;;;;;;6.22;3.92;;;;;;;10.00;66.01;98531.59;5013337;28;20022;-74
2022/04/07 00:37:24;;;;;;;4.78;4.05;;;;;;;9.96;66.60;98531.81;5013690;28;20040;-74
2022/04/07 00:39:52;;;;;;;6.07;4.15;;;;;;;9.94;66.53;98536.50;5013539;28;20029;-75
2022/04/07 00:42:47;;;;;;;6.95;4.72;;;;;;;9.88;67.07;98530.03;4996368;28;20399;-73
2022/04/07 00:45:32;;;;;;;7.32;4.28;;;;;;;9.80;67.39;98531.84;5014631;28;20034;-75
2022/04/07 00:47:58;;;;;;;4.88;4.38;;;;;;;9.76;66.30;98520.75;5013121;28;20029;-75
2022/04/07 00:50:25;;;;;;;6.57;4.25;;;;;;;9.80;67.00;98523.31;5012550;28;20530;-75
2022/04/07 00:53:06;;;;;;;6.47;4.80;;;;;;;9.83;66.41;98516.59;5014318;28;20368;-75
2022/04/07 00:55:36;;;;;;;9.13;4.37;;;;;;;9.85;66.29;98506.25;5014219;28;20494;-75
2022/04/07 00:58:02;;;;;;;5.25;3.85;;;;;;;9.85;66.66;98508.34;4996818;28;20288;-74
2022/04/07 01:00:30;;;;;;;4.63;3.75;;;;;;;9.85;66.91;98508.34;5013015;28;20037;-74
2022/04/07 01:02:57;;;;;;;5.60;3.88;;;;;;;9.84;66.84;98509.63;5014593;28;20025;-75
2022/04/07 01:05:23;;;;;;;4.35;3.92;;;;;;;9.91;66.48;98506.25;5014602;28;20502;-75
2022/04/07 01:07:49;;;;;;;6.13;4.35;;;;;;;9.92;66.13;98505.72;5012305;28;20030;-74
2022/04/07 01:10:19;;;;;;;5.38;4.30;;;;;;;9.95;66.76;98509.63;5011574;28;20036;-74
2022/04/07 01:12:49;;;;;;;5.05;3.63;;;;;;;9.96;67.01;98505.47;5012889;28;20107;-74
2022/04/07 01:15:14;;;;;;;6.93;4.60;;;;;;;9.96;66.28;98496.94;4995476;28;20501;-74
2022/04/07 01:17:40;;;;;;;5.53;3.80;;;;;;;9.96;66.08;98494.09;5012298;28;20026;-75
2022/04/07 01:20:10;;;;;;;4.80;3.22;;;;;;;10.08;65.68;98494.84;5013261;28;20018;-74
2022/04/07 01:22:41;;;;;;;6.13;3.60;;;;;;;10.12;66.13;98503.88;5013110;28;20026;-75
2022/04/07 01:25:07;;;;;;;6.95;3.72;;;;;;;10.11;66.61;98502.34;5012685;28;20041;-74
2022/04/07 01:27:34;;;;;;;4.90;3.85;;;;;;;10.14;65.59;98502.06;5012937;28;20034;-74
2022/04/07 01:30:04;;;;;;;4.00;3.33;;;;;;;10.21;65.46;98497.97;5012632;28;20046;-74
2022/04/07 01:32:45;;;;;;;4.68;3.85;;;;;;;10.27;65.29;98490.94;4996456;28;20376;-74
2022/04/07 01:35:25;;;;;;;5.20;3.25;;;;;;;10.29;64.80;98494.06;5016633;28;20057;-75
2022/04/07 01:37:52;;;;;;;5.15;3.40;;;;;;;10.36;64.67;98492.75;5019559;28;20029;-74
2022/04/07 01:40:21;;;;;;;5.28;3.53;;;;;;;10.38;64.45;98496.63;5019303;28;20022;-74
2022/04/07 01:42:56;;;;;;;3.22;2.92;;;;;;;10.46;64.43;98493.25;5020684;28;20026;-75
2022/04/07 01:45:22;;;;;;;5.18;3.40;;;;;;;10.47;64.12;98494.75;5003090;28;20079;-75
2022/04/07 01:47:49;;;;;;;5.07;3.03;;;;;;;10.47;64.30;98489.06;5019005;28;20026;-74
2022/04/07 01:50:17;;;;;;;4.93;3.33;;;;;;;10.47;64.08;98481.31;5018869;28;20050;-74
2022/04/07 01:52:43;;;;;;;3.72;3.30;;;;;;;10.55;63.73;98485.19;5002902;28;20142;-74
2022/04/07 01:55:09;;;;;;;4.93;3.00;;;;;;;10.54;63.65;98482.84;5018992;28;20460;-76
2022/04/07 01:57:35;;;;;;;3.85;3.28;;;;;;;10.58;63.51;98484.13;5002385;28;20533;-74
2022/04/07 02:00:09;;;;;;;5.28;3.17;;;;;;;10.61;63.93;98485.91;5018999;28;20029;-74
2022/04/07 02:02:35;;;;;;;5.38;3.03;;;;;;;10.61;63.42;98483.06;5018698;28;20502;-74
2022/04/07 02:05:08;;;;;;;4.35;3.58;;;;;;;10.62;64.04;98487.47;5002465;28;20100;-74
2022/04/07 02:07:40;;;;;;;4.72;3.30;;;;;;;10.62;64.26;98487.47;4987668;28;20037;-74
2022/04/07 02:10:11;;;;;;;6.00;3.72;;;;;;;10.60;64.10;98484.38;5002613;28;20423;-75
2022/04/07 02:12:46;;;;;;;4.47;3.90;;;;;;;10.54;63.35;98474.31;5002363;28;20052;-74
2022/04/07 02:15:12;;;;;;;4.88;3.30;;;;;;;10.51;63.70;98473.25;5018606;28;20034;-75
2022/04/07 02:17:39;;;;;;;4.38;3.67;;;;;;;10.49;64.26;98480.78;5020147;28;20076;-74
2022/04/07 02:20:09;;;;;;;3.85;3.30;;;;;;;10.46;63.62;98473.31;5018903;28;20378;-74
2022/04/07 02:22:34;;;;;;;7.63;3.60;;;;;;;10.36;63.62;98467.88;5020871;28;20033;-75
2022/04/07 02:24:59;;;;;;;3.80;3.47;;;;;;;10.35;63.99;98468.44;5019818;28;20029;-75
2022/04/07 02:27:34;;;;;;;4.35;3.45;;;;;;;10.37;64.39;98468.66;5019912;28;20386;-75
2022/04/07 02:30:04;;;;;;;4.35;3.08;;;;;;;10.43;64.05;98462.97;5018825;28;20056;-74
2022/04/07 02:32:29;;;;;;;5.30;3.20;;;;;;;10.42;64.29;98455.72;5002390;28;20033;-74
2022/04/07 02:34:56;;;;;;;4.93;2.90;;;;;;;10.37;64.44;98466.59;5020048;28;20029;-74
2022/04/07 02:37:25;;;;;;;3.72;2.75;;;;;;;10.36;64.35;98464.28;5018171;28;20503;-75
2022/04/07 02:39:52;;;;;;;3.28;2.90;;;;;;;10.30;64.23;98458.63;5020077;28;20030;-75
2022/04/07 02:42:20;;;;;;;4.38;3.00;;;;;;;10.32;64.36;98464.53;5018472;28;20387;-74
2022/04/07 02:44:47;;;;;;;5.15;3.10;;;;;;;10.30;64.33;98466.38;5018493;28;20368;-73
2022/04/07 02:47:12;;;;;;;5.00;3.35;;;;;;;10.27;64.58;98464.56;5014737;28;20121;-74
2022/04/07 02:49:39;;;;;;;6.05;3.05;;;;;;;10.23;64.83;98461.22;5014829;28;20141;-73
2022/04/07 02:52:11;;;;;;;4.20;3.17;;;;;;;10.21;64.19;98467.41;5015424;28;20057;-74
2022/04/07 02:54:38;;;;;;;5.60;3.13;;;;;;;10.17;65.59;98469.75;5012668;28;20494;-75
2022/04/07 02:57:06;;;;;;;6.03;3.50;;;;;;;10.15;64.48;98472.34;5017311;28;20061;-74
2022/04/07 02:59:33;;;;;;;4.25;3.65;;;;;;;10.10;65.68;98473.13;5019860;28;20098;-74
2022/04/07 03:02:00;;;;;;;6.60;3.80;;;;;;;10.05;65.33;98482.44;5019661;28;20025;-73
2022/04/07 03:04:25;;;;;;;6.65;3.70;;;;;;;9.98;65.03;98477.28;5017553;28;20171;-75
2022/04/07 03:06:53;;;;;;;5.63;4.00;;;;;;;9.89;65.47;98472.66;5001227;28;20096;-74
2022/04/07 03:09:20;;;;;;;5.05;3.72;;;;;;;9.79;65.52;98474.22;5001903;28;20042;-74
2022/04/07 03:11:46;;;;;;;9.20;4.63;;;;;;;9.72;65.86;98476.81;5017341;28;20029;-74
2022/04/07 03:14:14;;;;;;;4.15;3.75;;;;;;;9.63;66.35;98469.31;5018428;28;20026;-75
2022/04/07 03:16:40;;;;;;;5.47;4.50;;;;;;;9.52;66.32;98463.66;5001851;28;20046;-74
2022/04/07 03:19:22;;;;;;;7.22;4.35;;;;;;;9.42;67.95;98459.53;5001127;28;20128;-74
2022/04/07 03:21:48;;;;;;;8.27;4.80;;;;;;;9.30;67.54;98458.72;5015836;28;20049;-74
2022/04/07 03:24:14;;;;;;;5.78;4.55;;;;;;;9.24;68.22;98452.25;5015802;28;20467;-74
2022/04/07 03:26:41;;;;;;;9.10;4.50;;;;;;;9.26;67.92;98455.38;4998451;28;20022;-73
2022/04/07 03:29:06;;;;;;;6.57;4.20;;;;;;;9.27;68.08;98439.88;4998423;28;20040;-74
2022/04/07 03:31:32;;;;;;;5.55;4.68;;;;;;;9.27;68.75;98439.88;5014373;28;20029;-74
2022/04/07 03:33:59;;;;;;;5.13;4.13;;;;;;;9.27;68.17;98445.56;5014559;28;20030;-74
2022/04/07 03:36:25;;;;;;;6.70;5.00;;;;;;;9.22;68.68;98448.41;5014446;28;20382;-75
2022/04/07 03:38:51;;;;;;;6.97;4.68;;;;;;;9.16;68.33;98441.94;5015873;28;20053;-74
2022/04/07 03:41:18;;;;;;;5.47;4.35;;;;;;;9.06;68.89;98433.66;5015880;28;20030;-75
2022/04/07 03:43:44;;;;;;;5.85;4.75;;;;;;;9.04;68.82;98435.47;5014550;28;20053;-76
2022/04/07 03:46:11;;;;;;;5.82;4.72;;;;;;;9.06;68.68;98435.72;4998139;28;20537;-76
2022/04/07 03:48:37;;;;;;;7.20;4.82;;;;;;;8.99;68.70;98428.50;4997586;28;20026;-75
2022/04/07 03:51:04;;;;;;;7.70;4.30;;;;;;;9.03;69.23;98439.59;5015091;28;20061;-74
2022/04/07 03:53:30;;;;;;;6.07;4.53;;;;;;;9.09;69.27;98440.38;5014528;28;20022;-74
2022/04/07 03:55:56;;;;;;;5.05;4.50;;;;;;;9.09;69.77;98441.16;5015702;28;20114;-74
2022/04/07 03:58:22;;;;;;;5.20;4.22;;;;;;;9.12;69.12;98433.69;4997448;28;20038;-76
2022/04/07 04:00:47;;;;;;;7.32;5.20;;;;;;;9.09;69.56;98435.47;5014425;28;20527;-75
2022/04/07 04:03:14;;;;;;;7.30;5.00;;;;;;;9.04;68.76;98444.75;5015381;28;20034;-74
2022/04/07 04:05:39;;;;;;;7.40;5.03;;;;;;;9.02;68.69;98441.66;5013897;28;20149;-75
2022/04/07 04:08:05;;;;;;;8.18;5.05;;;;;;;8.96;69.63;98434.44;5013998;28;20065;-76
2022/04/07 04:10:31;;;;;;;6.40;4.75;;;;;;;8.97;69.48;98424.63;4997712;28;20030;-75
2022/04/07 04:12:56;;;;;;;7.70;5.05;;;;;;;9.05;68.97;98434.94;5014172;28;20041;-75
2022/04/07 04:15:21;;;;;;;6.40;4.53;;;;;;;9.05;69.55;98422.81;5013579;28;20413;-75
2022/04/07 04:17:50;;;;;;;5.45;4.75;;;;;;;9.11;69.06;98426.44;5013281;28;20472;-75
2022/04/07 04:20:16;;;;;;;6.13;5.15;;;;;;;9.25;68.70;98433.16;5014767;28;20029;-74
2022/04/07 04:22:42;;;;;;;5.78;4.63;;;;;;;9.26;68.04;98431.88;5014494;28;20125;-75
2022/04/07 04:25:08;;;;;;;7.32;4.60;;;;;;;9.27;68.43;98428.53;5014943;28;20108;-74
2022/04/07 04:27:35;;;;;;;7.22;4.43;;;;;;;9.26;68.80;98429.03;5013655;28;20391;-75
2022/04/07 04:30:02;;;;;;;5.85;4.50;;;;;;;9.32;68.43;98436.28;5014370;28;20042;-75
2022/04/07 04:32:29;;;;;;;6.10;4.40;;;;;;;9.35;68.44;98432.38;5013238;28;20061;-75
2022/04/07 04:34:55;;;;;;;6.97;4.68;;;;;;;9.36;67.80;98425.41;4980962;28;20502;-76
2022/04/07 04:37:25;;;;;;;7.68;4.55;;;;;;;9.42;67.60;98411.22;5013462;28;20108;-74
2022/04/07 04:39:53;;;;;;;7.10;4.07;;;;;;;9.49;67.40;98408.59;5013150;28;20483;-74
2022/04/07 04:42:20;;;;;;;6.50;3.97;;;;;;;9.57;67.14;98408.84;5013059;28;20368;-74
2022/04/07 04:44:46;;;;;;;6.70;3.20;;;;;;;9.67;66.51;98415.06;5013351;28;20037;-74
2022/04/07 04:47:13;;;;;;;8.52;4.10;;;;;;;9.77;66.35;98413.47;4996589;28;20040;-75
2022/04/07 04:49:42;;;;;;;8.52;3.65;;;;;;;9.86;66.54;98411.13;4996173;28;20085;-75
2022/04/07 04:52:09;;;;;;;5.13;3.97;;;;;;;9.94;65.95;98405.69;5013527;28;20034;-74
2022/04/07 04:54:34;;;;;;;5.80;3.80;;;;;;;9.96;65.51;98409.53;5011803;28;20115;-74
2022/04/07 04:56:59;;;;;;;8.25;3.85;;;;;;;10.01;65.84;98419.38;5013181;28;20030;-75
2022/04/07 04:59:26;;;;;;;8.20;3.78;;;;;;;10.10;65.11;98409.78;4996596;28;20025;-75
2022/04/07 05:01:52;;;;;;;5.57;3.25;;;;;;;10.15;65.00;98412.59;5013072;28;20087;-79
2022/04/07 05:04:18;;;;;;;5.97;3.70;;;;;;;10.12;65.24;98393.72;5012692;28;20418;-74
2022/04/07 05:06:44;;;;;;;3.83;3.38;;;;;;;10.27;64.87;98407.66;5013771;28;20366;-74
2022/04/07 05:09:10;;;;;;;5.43;3.13;;;;;;;10.28;64.69;98404.28;5013235;28;20079;-73
2022/04/07 05:11:37;;;;;;;7.30;3.47;;;;;;;10.39;64.68;98412.00;5012519;28;20083;-72
2022/04/07 05:14:03;;;;;;;6.05;3.58;;;;;;;10.42;63.54;98408.09;5013994;28;20033;-74
2022/04/07 05:16:30;;;;;;;4.18;3.75;;;;;;;10.53;64.25;98413.75;5013659;28;20033;-73
2022/04/07 05:18:55;;;;;;;5.57;3.80;;;;;;;10.59;63.56;98408.81;4995807;28;20041;-73
2022/04/07 05:21:20;;;;;;;8.80;3.63;;;;;;;10.59;63.31;98403.13;4979824;28;20072;-73
2022/04/07 05:23:46;;;;;;;6.43;3.63;;;;;;;10.66;63.08;98396.06;4996067;28;20022;-73
2022/04/07 05:26:16;;;;;;;6.55;3.70;;;;;;;10.77;63.47;98401.69;5012284;28;20029;-75
2022/04/07 05:28:42;;;;;;;6.22;3.88;;;;;;;10.88;62.75;98398.00;5013307;28;20036;-73
2022/04/07 05:31:08;;;;;;;7.60;3.78;;;;;;;10.97;62.42;98386.28;5011476;28;20072;-73
2022/04/07 05:33:33;;;;;;;5.05;3.33;;;;;;;11.07;62.19;98388.28;5011983;28;20065;-73
2022/04/07 05:36:00;;;;;;;4.18;3.22;;;;;;;11.19;61.93;98386.13;5010100;28;20044;-74
2022/04/07 05:38:25;;;;;;;10.27;3.47;;;;;;;11.29;61.35;98390.19;5012368;28;20040;-74
2022/04/07 05:40:51;;;;;;;7.43;3.53;;;;;;;11.36;61.65;98383.13;5012154;28;20025;-74
2022/04/07 05:43:18;;;;;;;5.18;3.42;;;;;;;11.37;61.37;98385.47;4995657;28;20030;-73
2022/04/07 05:45:45;;;;;;;7.88;3.50;;;;;;;11.55;60.55;98381.91;5013335;28;20030;-74
2022/04/07 05:48:12;;;;;;;8.43;3.80;;;;;;;11.55;61.34;98376.22;5012375;28;20026;-74
2022/04/07 05:50:41;;;;;;;26.05;5.05;;;;;;;11.64;60.54;98380.81;5011756;28;20086;-74
2022/04/07 05:53:10;;;;;;;6.70;4.38;;;;;;;11.83;60.49;98383.75;5011999;28;20053;-73
2022/04/07 05:55:38;;;;;;;6.22;4.22;;;;;;;11.89;60.32;98379.50;5013388;28;20037;-73
2022/04/07 05:58:08;;;;;;;5.85;3.05;;;;;;;12.05;60.32;98387.13;5007046;28;20360;-75
2022/04/07 06:00:37;;;;;;;6.25;4.38;;;;;;;12.17;59.65;98375.56;4995613;28;20022;-73
2022/04/07 06:03:04;;;;;;;9.15;4.90;;;;;;;12.27;59.55;98377.53;4980104;28;20534;-73
2022/04/07 06:05:44;;;;;;;7.65;3.95;;;;;;;12.29;58.84;98374.13;4996029;28;20044;-72
2022/04/07 06:08:11;;;;;;;12.50;4.43;;;;;;;12.44;58.63;98360.94;5011731;28;20120;-74
2022/04/07 06:10:37;;;;;;;12.30;3.67;;;;;;;12.57;58.65;98363.13;5013165;28;20058;-73
2022/04/07 06:13:04;;;;;;;6.78;3.42;;;;;;;12.68;58.16;98370.75;4995052;28;20108;-75
2022/04/07 06:15:31;;;;;;;7.20;4.00;;;;;;;12.80;57.73;98360.69;4995317;28;20025;-74
2022/04/07 06:17:56;;;;;;;4.63;3.83;;;;;;;12.87;57.70;98360.09;5013149;28;20069;-73
2022/04/07 06:20:22;;;;;;;4.45;3.70;;;;;;;13.01;57.19;98364.53;5022739;28;20053;-74
2022/04/07 06:22:48;;;;;;;6.32;3.72;;;;;;;13.05;57.13;98361.34;5034490;28;20135;-74
2022/04/07 06:25:13;;;;;;;8.05;3.45;;;;;;;13.07;57.02;98364.44;5013015;28;20454;-73
2022/04/07 06:27:47;;;;;;;4.80;3.38;;;;;;;13.20;56.67;98356.72;5012970;28;20395;-74
2022/04/07 06:30:17;;;;;;;6.68;3.90;;;;;;;13.20;56.60;98364.50;5013841;28;20058;-76
2022/04/07 06:32:45;;;;;;;7.05;4.13;;;;;;;13.27;56.34;98366.75;5015188;28;20455;-75
2022/04/07 06:35:14;;;;;;;6.80;4.22;;;;;;;13.24;56.21;98357.16;4998442;28;20060;-75
2022/04/07 06:37:55;;;;;;;4.15;3.38;;;;;;;13.25;56.16;98350.13;5011848;28;20042;-74
2022/04/07 06:40:25;;;;;;;4.53;3.70;;;;;;;13.35;56.05;98350.50;5013593;28;20046;-74
2022/04/07 06:42:53;;;;;;;7.15;3.70;;;;;;;13.72;55.51;98353.19;5015467;28;20037;-74
2022/04/07 06:45:20;;;;;;;6.78;3.50;;;;;;;14.39;53.73;98349.00;4998312;28;20037;-73
2022/04/07 06:47:45;;;;;;;7.78;3.55;;;;;;;15.60;51.37;98354.50;4997532;28;20038;-74
2022/04/07 06:50:13;;;;;;;4.50;3.42;;;;;;;16.25;49.47;98348.25;5014037;28;20045;-75
2022/04/07 06:53:00;;;;;;;4.70;2.97;;;;;;;16.97;47.41;98344.53;5014989;28;20120;-73
2022/04/07 06:55:28;;;;;;;5.18;2.78;;;;;;;17.76;45.36;98343.50;5015484;28;20034;-72
2022/04/07 06:57:57;;;;;;;2.75;2.42;;;;;;;18.07;44.06;98339.22;5015434;28;20494;-75
2022/04/07 07:00:25;;;;;;;7.15;2.53;;;;;;;18.20;43.68;98341.13;5015807;28;20502;-77
2022/04/07 07:03:15;;;;;;;5.50;2.75;;;;;;;17.72;44.48;98348.84;4998190;28;20026;-75
2022/04/07 07:05:47;;;;;;;6.00;3.08;;;;;;;17.24;45.43;98328.47;4998488;28;20049;-77
2022/04/07 07:08:20;;;;;;;4.97;2.78;;;;;;;17.95;44.57;98338.09;5016208;28;20370;-78
2022/04/07 07:10:47;;;;;;;2.92;2.08;;;;;;;19.45;40.54;98328.59;5013919;28;20399;-78
2022/04/07 07:13:22;;;;;;;5.93;2.85;;;;;;;20.27;40.27;98335.00;5015815;28;20034;-76
2022/04/07 07:15:57;;;;;;;9.05;2.75;;;;;;;20.26;39.78;98334.22;5012846;28;20096;-79
2022/04/07 07:18:24;;;;;;;4.70;2.50;;;;;;;20.74;38.39;98327.31;5015555;28;20026;-81
2022/04/07 07:20:50;;;;;;;3.28;2.33;;;;;;;21.27;36.55;98315.78;4997763;28;20041;-79
2022/04/07 07:23:20;;;;;;;5.28;2.78;;;;;;;21.62;36.79;98321.41;5015302;28;20018;-75
2022/04/07 07:25:47;;;;;;;4.47;1.95;;;;;;;22.37;34.74;98325.13;5014857;28;20076;-76
2022/04/07 07:28:14;;;;;;;3.35;2.10;;;;;;;22.15;35.58;98315.47;5014599;28;20105;-78
2022/04/07 07:30:41;;;;;;;2.55;1.88;;;;;;;22.11;34.83;98320.19;5015448;28;20052;-78
2022/04/07 07:33:08;;;;;;;8.32;2.35;;;;;;;21.27;36.38;98321.56;5013467;28;20054;-78
2022/04/07 07:35:34;;;;;;;2.15;1.48;;;;;;;20.31;37.77;98314.34;4983347;28;20033;-78
2022/04/07 07:38:03;;;;;;;10.45;2.00;;;;;;;19.98;39.74;98305.03;5040559;28;20080;-77
2022/04/07 07:40:44;;;;;;;4.10;1.70;;;;;;;20.73;37.28;98300.50;5002158;28;20387;-77
2022/04/07 07:43:11;;;;;;;9.55;1.70;;;;;;;20.60;38.20;98297.97;5013768;28;20104;-77
2022/04/07 07:45:36;;;;;;;2.13;1.55;;;;;;;21.52;36.45;98284.47;5015024;28;20018;-76
2022/04/07 07:48:02;;;;;;;6.78;1.90;;;;;;;21.79;35.08;98283.66;4997535;28;20037;-76
2022/04/07 07:50:27;;;;;;;2.75;1.85;;;;;;;21.20;35.58;98284.06;5013358;28;20049;-77
2022/04/07 07:52:54;;;;;;;3.83;2.15;;;;;;;20.74;36.85;98267.31;5013928;28;20037;-77
2022/04/07 07:55:19;;;;;;;2.55;1.67;;;;;;;20.01;37.75;98280.72;5015562;28;20026;-79
2022/04/07 07:57:47;;;;;;;3.47;1.98;;;;;;;20.29;37.88;98271.53;5015752;28;20029;-81
2022/04/07 08:00:16;;;;;;;2.30;1.65;;;;;;;20.78;37.95;98246.59;5014246;28;20018;-80
2022/04/07 08:02:43;;;;;;;3.15;1.60;;;;;;;21.05;37.98;98261.84;4998266;28;20038;-81
2022/04/07 08:05:10;;;;;;;5.72;1.83;;;;;;;21.50;36.07;98258.25;5014833;28;20056;-80
2022/04/07 08:07:41;;;;;;;1.75;1.45;;;;;;;21.23;36.34;98253.88;5018774;28;20109;-80
2022/04/07 08:10:08;;;;;;;2.70;1.90;;;;;;;21.67;35.80;98263.16;5000654;28;20030;-81
2022/04/07 08:12:33;;;;;;;3.83;1.83;;;;;;;21.69;36.25;98259.66;5004535;28;20061;-82
2022/04/07 08:14:59;;;;;;;2.38;1.90;;;;;;;21.67;36.71;98259.50;5021971;28;20037;-80
2022/04/07 08:17:25;;;;;;;1.63;1.52;;;;;;;21.54;36.65;98260.69;5017720;28;20091;-79
2022/04/07 08:19:51;;;;;;;4.70;1.65;;;;;;;21.37;37.32;98263.69;5017012;28;20014;-81
2022/04/07 08:22:17;;;;;;;3.92;1.60;;;;;;;21.64;37.49;98252.78;5015805;28;20025;-80
2022/04/07 08:24:42;;;;;;;1.95;1.23;;;;;;;21.13;36.48;98250.91;5013273;28;20030;-80
2022/04/07 08:27:08;;;;;;;2.10;1.63;;;;;;;20.83;37.97;98255.03;4996587;28;20030;-79
2022/04/07 08:29:35;;;;;;;2.58;1.58;;;;;;;20.93;37.62;98257.97;5014317;28;20060;-78
2022/04/07 08:32:02;;;;;;;2.75;1.48;;;;;;;21.07;37.69;98242.50;5013092;28;20018;-80
2022/04/07 08:34:28;;;;;;;1.58;1.35;;;;;;;21.10;37.40;98237.66;5014373;28;20022;-81
2022/04/07 08:36:55;;;;;;;5.70;1.42;;;;;;;21.33;37.12;98249.66;5014895;28;20025;-80
2022/04/07 08:39:21;;;;;;;3.05;1.50;;;;;;;21.38;35.78;98239.13;5014298;28;20041;-79
2022/04/07 08:41:50;;;;;;;4.93;1.83;;;;;;;21.25;35.66;98251.91;5012976;28;20319;-79
2022/04/07 08:44:17;;;;;;;4.85;1.30;;;;;;;20.87;36.62;98248.81;4996469;28;20030;-79
2022/04/07 08:46:53;;;;;;;8.48;1.10;;;;;;;20.66;35.73;98246.41;5012557;28;20056;-79
2022/04/07 08:49:22;;;;;;;1.58;1.40;;;;;;;20.40;36.03;98247.13;4979795;28;20395;-79
2022/04/07 08:51:50;;;;;;;1.88;1.45;;;;;;;20.19;37.38;98251.22;5012886;28;20022;-78
2022/04/07 08:54:18;;;;;;;2.35;1.55;;;;;;;19.91;38.25;98233.63;4996421;28;20060;-82
2022/04/07 08:56:44;;;;;;;3.80;1.52;;;;;;;19.59;38.73;98234.53;5014238;28;20025;-78
2022/04/07 08:59:09;;;;;;;3.67;1.67;;;;;;;19.48;39.46;98237.91;4996710;28;20364;-78
2022/04/07 09:01:35;;;;;;;4.43;1.55;;;;;;;19.63;38.57;98226.22;4996570;28;20026;-81
2022/04/07 09:04:04;;;;;;;6.57;1.85;;;;;;;19.44;38.91;98221.00;5012831;28;20026;-79
2022/04/07 09:06:34;;;;;;;2.35;1.75;;;;;;;19.25;38.86;98223.63;5012684;28;20159;-79
2022/04/07 09:09:18;;;;;;;1.77;1.30;;;;;;;19.18;40.71;98236.03;5012340;28;20022;-79
2022/04/07 09:11:44;;;;;;;1.45;1.15;;;;;;;19.25;38.87;98227.28;4997107;28;20037;-79
2022/04/07 09:14:16;;;;;;;1.42;1.10;;;;;;;19.31;39.38;98221.28;5011589;28;20123;-79
2022/04/07 09:16:42;;;;;;;4.38;1.67;;;;;;;19.26;38.31;98230.94;5012439;28;20539;-78
2022/04/07 09:19:08;;;;;;;2.83;1.65;;;;;;;19.39;38.84;98219.09;5012379;28;20479;-78
2022/04/07 09:21:37;;;;;;;4.53;1.20;;;;;;;19.61;40.08;98211.59;5012263;28;20033;-79
2022/04/07 09:24:08;;;;;;;2.42;1.45;;;;;;;19.60;39.15;98204.28;5013470;28;20112;-76
2022/04/07 09:26:48;;;;;;;4.78;1.60;;;;;;;19.71;38.70;98195.88;5013765;28;20030;-80
2022/04/07 09:29:15;;;;;;;3.95;1.30;;;;;;;19.81;38.79;98195.97;5013600;28;20521;-79
2022/04/07 09:31:51;;;;;;;1.40;1.30;;;;;;;19.56;38.35;98207.59;5013539;28;20464;-79
2022/04/07 09:34:29;;;;;;;2.92;1.50;;;;;;;19.48;39.80;98201.16;5011815;28;20395;-80
2022/04/07 09:37:08;;;;;;;3.05;1.48;;;;;;;20.02;38.87;98184.75;5013698;28;20037;-80
2022/04/07 09:39:36;;;;;;;3.70;1.60;;;;;;;20.17;37.47;98193.22;5013524;28;20028;-76
2022/04/07 09:42:25;;;;;;;4.80;1.02;;;;;;;20.16;36.52;98179.38;4996560;28;20029;-77
2022/04/07 09:45:00;;;;;;;3.58;1.70;;;;;;;19.71;37.02;98166.22;5013414;28;20029;-78
2022/04/07 09:47:46;;;;;;;1.85;1.40;;;;;;;19.40;37.84;98171.53;5012017;28;20101;-80
2022/04/07 09:50:21;;;;;;;1.60;1.20;;;;;;;19.86;38.43;98165.28;4995280;28;20129;-77
2022/04/07 09:53:07;;;;;;;3.42;1.30;;;;;;;20.07;37.96;98157.72;5013081;28;20057;-79
2022/04/07 09:55:38;;;;;;;1.77;1.15;;;;;;;20.57;35.82;98142.97;5013727;28;20124;-80
2022/04/07 09:58:06;;;;;;;5.93;1.40;;;;;;;20.14;35.15;98133.69;5016145;28;20164;-81
2022/04/07 10:00:33;;;;;;;3.85;0.95;;;;;;;19.93;36.53;98121.09;5015619;28;20034;-81
2022/04/07 10:02:59;;;;;;;5.78;1.40;;;;;;;19.52;37.17;98155.28;5015907;28;20125;-82
2022/04/07 10:05:25;;;;;;;4.20;1.42;;;;;;;19.11;36.29;98138.72;5017296;28;20069;-81
2022/04/07 10:07:51;;;;;;;5.75;1.45;;;;;;;18.95;37.05;98133.06;4999718;28;20068;-80
2022/04/07 10:10:18;;;;;;;4.60;1.35;;;;;;;18.68;37.43;98137.94;5016281;28;20025;-80
2022/04/07 10:12:47;;;;;;;3.38;0.80;;;;;;;18.44;37.96;98110.59;4999949;28;20128;-80
2022/04/07 10:15:17;;;;;;;1.75;0.73;;;;;;;18.54;38.70;98119.41;5015807;28;20022;-80
2022/04/07 10:17:44;;;;;;;4.78;0.98;;;;;;;18.58;38.61;98122.63;5013230;28;20075;-81
2022/04/07 10:20:14;;;;;;;2.50;0.88;;;;;;;18.43;38.83;98105.41;5017367;28;20037;-81
2022/04/07 10:23:03;;;;;;;3.50;2.45;;;;;;;18.63;39.16;98095.66;5017252;28;20034;-81
2022/04/07 10:25:44;;;;;;;9.60;1.40;;;;;;;19.10;38.57;98096.78;5017842;28;20034;-79
2022/04/07 10:28:25;;;;;;;3.08;0.82;;;;;;;19.17;38.15;98079.41;5015640;28;20034;-79
2022/04/07 10:30:57;;;;;;;6.43;1.15;;;;;;;19.12;37.58;98077.53;5015507;28;20049;-80
2022/04/07 10:33:42;;;;;;;3.78;1.65;;;;;;;19.17;38.44;98090.16;4999465;28;20384;-78
2022/04/07 10:36:25;;;;;;;3.00;0.95;;;;;;;18.90;39.68;98066.97;5015701;28;20033;-78
2022/04/07 10:38:51;;;;;;;7.32;1.30;;;;;;;19.01;40.46;98060.69;4998856;28;20467;-80
2022/04/07 10:41:40;;;;;;;13.10;2.05;;;;;;;18.88;38.19;98056.03;5016306;28;20370;-79
2022/04/07 10:44:09;;;;;;;3.35;1.20;;;;;;;18.50;38.49;98055.59;5016263;28;20489;-80
2022/04/07 10:46:49;;;;;;;2.67;0.82;;;;;;;18.25;39.57;98041.16;5015469;28;20038;-81
2022/04/07 10:49:31;;;;;;;2.20;1.27;;;;;;;18.20;40.19;98059.47;5014678;28;20046;-79
2022/04/07 10:51:59;;;;;;;3.55;1.13;;;;;;;18.10;41.27;98027.66;5016361;28;20032;-78
2022/04/07 10:54:30;;;;;;;1.85;1.00;;;;;;;18.01;40.89;98025.38;5014803;28;20053;-79
2022/04/07 10:57:01;;;;;;;1.98;1.45;;;;;;;17.97;41.60;98024.25;4982216;28;20022;-80
2022/04/07 10:59:28;;;;;;;9.48;2.15;;;;;;;18.02;41.10;98021.16;5015901;28;20032;-81
2022/04/07 11:02:04;;;;;;;3.45;1.20;;;;;;;18.01;42.50;98015.97;5013307;28;20018;-82
2022/04/07 11:04:52;;;;;;;5.10;1.30;;;;;;;17.91;41.53;97995.69;5016050;28;20532;-82
2022/04/07 11:07:18;;;;;;;1.75;1.00;;;;;;;17.88;39.88;98017.03;5015103;28;20026;-81
2022/04/07 11:10:14;;;;;;;1.48;1.00;;;;;;;18.08;41.07;98006.50;5014775;28;20029;-81
2022/04/07 11:12:45;;;;;;;2.47;0.68;;;;;;;17.82;39.82;98010.72;5015589;28;20076;-80
2022/04/07 11:15:26;;;;;;;2.42;1.05;;;;;;;17.77;39.46;97982.16;4998431;28;20053;-80
2022/04/07 11:17:53;;;;;;;2.72;0.65;;;;;;;17.77;40.24;97997.31;5015837;28;20442;-78
2022/04/07 11:20:23;;;;;;;2.67;0.70;;;;;;;17.82;39.85;97987.69;5014387;28;20025;-80
2022/04/07 11:22:59;;;;;;;7.57;1.13;;;;;;;17.69;39.67;97985.09;5014122;28;20026;-80
2022/04/07 11:25:31;;;;;;;0.70;0.70;;;;;;;17.92;39.84;97991.44;5030695;28;20223;-78
2022/04/07 11:28:06;;;;;;;7.65;1.08;;;;;;;18.38;40.47;97986.09;5018357;28;20021;-79
2022/04/07 11:31:00;;;;;;;3.75;0.90;;;;;;;18.41;38.45;97987.78;5037422;28;20014;-80
2022/04/07 11:33:39;;;;;;;1.67;0.80;;;;;;;18.17;39.26;97973.41;5018105;28;20113;-82
2022/04/07 11:36:32;;;;;;;2.85;0.80;;;;;;;18.15;40.02;97947.31;5010202;28;20063;-82
2022/04/07 11:38:59;;;;;;;3.00;0.68;;;;;;;18.10;39.44;97946.97;5014037;28;20463;-81
2022/04/07 11:41:31;;;;;;;3.75;0.80;;;;;;;18.10;40.35;97949.06;5015391;28;20113;-81
2022/04/07 11:43:57;;;;;;;1.90;0.70;;;;;;;17.99;41.31;97935.91;5013579;28;20038;-82